createdAt,value
2022-12-17T00:00:27.936Z,51.50
2022-12-17T00:01:50.084Z,59.38
2022-12-17T00:03:17.354Z,79.40
2022-12-17T00:04:39.045Z,48.97
2022-12-17T00:06:00.771Z,100.35
2022-12-17T00:07:22.370Z,50.25
2022-12-17T00:08:44.095Z,53.88
2022-12-17T00:10:05.695Z,66.70
2022-12-17T00:11:27.297Z,75.63
2022-12-17T00:12:49.020Z,53.92
2022-12-17T00:14:10.743Z,49.13
2022-12-17T00:15:32.342Z,46.03
2022-12-17T00:16:54.065Z,54.90
2022-12-17T00:18:26.350Z,78.28
2022-12-17T00:19:48.191Z,78.93
2022-12-17T00:21:17.356Z,52.03
2022-12-17T00:22:38.836Z,66.25
2022-12-17T00:24:00.320Z,58.63
2022-12-17T00:25:21.558Z,95.90
2022-12-17T00:26:42.802Z,52.45
2022-12-17T00:28:03.804Z,58.88
2022-12-17T00:29:35.728Z,58.22
2022-12-17T00:30:56.736Z,58.83
2022-12-17T00:32:18.261Z,76.78
2022-12-17T00:33:39.396Z,65.40
2022-12-17T00:35:00.818Z,70.22
2022-12-17T00:36:21.938Z,84.65
2022-12-17T00:37:42.986Z,65.70
2022-12-17T00:39:04.107Z,48.85
2022-12-17T00:40:26.072Z,62.58
2022-12-17T00:41:47.266Z,49.45
2022-12-17T00:43:19.308Z,47.38
2022-12-17T00:44:42.388Z,49.17
2022-12-17T00:47:24.032Z,38.60
2022-12-17T00:48:45.272Z,59.00
2022-12-17T00:50:07.712Z,49.35
2022-12-17T00:51:28.715Z,64.95
2022-12-17T00:52:49.697Z,85.70
2022-12-17T00:56:52.957Z,49.45
2022-12-17T00:58:17.320Z,35.15
2022-12-17T01:00:59.349Z,54.63
2022-12-17T01:02:20.645Z,47.58
2022-12-17T01:03:42.045Z,58.45
2022-12-17T01:05:03.043Z,44.53
2022-12-17T01:06:24.169Z,55.65
2022-12-17T01:07:45.405Z,45.42
2022-12-17T01:09:06.644Z,50.13
2022-12-17T01:10:27.781Z,53.00
2022-12-17T01:11:48.887Z,61.80
2022-12-17T01:13:10.010Z,59.30
2022-12-17T01:14:31.251Z,56.88
2022-12-17T01:15:52.530Z,41.17
2022-12-17T01:17:14.691Z,66.97
2022-12-17T01:18:37.975Z,60.33
2022-12-17T01:19:59.212Z,57.85
2022-12-17T01:21:20.333Z,58.65
2022-12-17T01:22:41.457Z,59.22
2022-12-17T01:24:04.022Z,48.97
2022-12-17T01:25:25.746Z,48.92
2022-12-17T01:26:46.981Z,38.70
2022-12-17T01:28:08.943Z,44.97
2022-12-17T01:29:30.785Z,48.78
2022-12-17T01:32:12.844Z,34.33
2022-12-17T01:33:34.216Z,44.53
2022-12-17T01:34:55.513Z,45.65
2022-12-17T01:36:17.479Z,44.90
2022-12-17T01:37:38.605Z,39.88
2022-12-17T01:39:00.207Z,46.17
2022-12-17T01:40:21.322Z,44.28
2022-12-17T01:41:42.564Z,51.58
2022-12-17T01:43:05.254Z,49.33
2022-12-17T01:45:03.812Z,38.20
2022-12-17T01:46:25.294Z,40.20
2022-12-17T01:47:51.346Z,35.33
2022-12-17T01:49:12.816Z,46.42
2022-12-17T01:50:35.859Z,53.53
2022-12-17T01:51:57.343Z,44.17
2022-12-17T01:53:21.588Z,49.08
2022-12-17T01:54:43.666Z,41.10
2022-12-17T01:56:05.266Z,45.92
2022-12-17T01:57:27.350Z,41.45
2022-12-17T01:58:50.036Z,39.80
2022-12-17T02:00:26.515Z,47.85
2022-12-17T02:01:48.182Z,47.78
2022-12-17T02:03:09.870Z,47.17
2022-12-17T02:04:31.564Z,39.45
2022-12-17T02:06:14.525Z,42.17
2022-12-17T02:07:57.846Z,48.85
2022-12-17T02:09:45.373Z,46.40
2022-12-17T02:11:18.852Z,45.83
2022-12-17T02:12:50.295Z,45.80
2022-12-17T02:14:26.659Z,37.45
2022-12-17T02:16:09.687Z,40.22
2022-12-17T02:17:37.232Z,40.35
2022-12-17T02:19:13.106Z,38.25
2022-12-17T02:20:53.548Z,54.38
2022-12-17T02:22:19.590Z,49.42
2022-12-17T02:23:56.528Z,54.05
2022-12-17T02:25:28.716Z,33.97
2022-12-17T02:26:55.361Z,38.83
2022-12-17T02:28:16.841Z,37.00
2022-12-17T02:29:40.841Z,56.50
2022-12-17T02:31:02.207Z,40.08
2022-12-17T02:32:26.261Z,46.75
2022-12-17T02:33:47.622Z,51.88
2022-12-17T02:35:08.982Z,53.90
2022-12-17T02:36:30.465Z,41.78
2022-12-17T02:37:53.147Z,46.60
2022-12-17T02:39:14.266Z,36.35
2022-12-17T02:40:41.639Z,42.92
2022-12-17T02:42:08.867Z,39.78
2022-12-17T02:43:30.667Z,49.17
2022-12-17T02:44:53.163Z,34.35
2022-12-17T02:46:17.556Z,52.60
2022-12-17T02:47:41.272Z,42.67
2022-12-17T02:49:02.753Z,49.83
2022-12-17T02:50:27.957Z,48.92
2022-12-17T02:51:49.433Z,42.65
2022-12-17T02:53:12.560Z,53.10
2022-12-17T02:54:33.474Z,43.22
2022-12-17T02:55:55.557Z,53.00
2022-12-17T02:57:16.562Z,45.38
2022-12-17T02:58:38.856Z,47.55
2022-12-17T02:59:59.760Z,35.80
2022-12-17T03:02:42.472Z,39.58
2022-12-17T03:04:03.842Z,43.78
2022-12-17T03:05:44.603Z,40.83
2022-12-17T03:07:06.403Z,41.90
2022-12-17T03:08:27.845Z,38.75
2022-12-17T03:09:50.414Z,44.67
2022-12-17T03:11:12.486Z,47.15
2022-12-17T03:12:33.491Z,39.85
2022-12-17T03:13:54.492Z,44.72
2022-12-17T03:15:15.613Z,45.00
2022-12-17T03:16:38.097Z,40.03
2022-12-17T03:17:59.779Z,39.00
2022-12-17T03:19:21.257Z,37.13
2022-12-17T03:20:42.376Z,45.75
2022-12-17T03:22:03.495Z,51.13
2022-12-17T03:23:27.259Z,49.65
2022-12-17T03:24:48.503Z,42.47
2022-12-17T03:26:10.100Z,51.22
2022-12-17T03:27:31.582Z,36.22
2022-12-17T03:28:52.822Z,46.97
2022-12-17T03:30:14.185Z,44.95
2022-12-17T03:31:35.391Z,40.67
2022-12-17T03:32:56.548Z,47.80
2022-12-17T03:34:25.119Z,44.22
2022-12-17T03:35:46.722Z,45.00
2022-12-17T03:37:07.833Z,42.33
2022-12-17T03:38:30.635Z,38.72
2022-12-17T03:39:51.757Z,47.90
2022-12-17T03:41:13.004Z,52.83
2022-12-17T03:42:34.363Z,51.08
2022-12-17T03:43:55.606Z,47.08
2022-12-17T03:45:16.969Z,53.05
2022-12-17T03:46:38.089Z,48.30
2022-12-17T03:47:59.330Z,45.60
2022-12-17T03:49:20.692Z,53.17
2022-12-17T03:50:41.937Z,48.70
2022-12-17T03:52:03.419Z,43.05
2022-12-17T03:53:24.660Z,54.95
2022-12-17T03:54:46.025Z,57.10
2022-12-17T03:56:07.509Z,50.88
2022-12-17T03:57:29.110Z,49.15
2022-12-17T03:58:50.708Z,43.38
2022-12-17T04:00:12.073Z,56.50
2022-12-17T04:01:33.635Z,51.60
2022-12-17T04:02:55.367Z,59.58
2022-12-17T04:04:17.356Z,53.47
2022-12-17T04:05:38.846Z,54.63
2022-12-17T04:07:00.564Z,47.75
2022-12-17T04:08:21.924Z,54.05
2022-12-17T04:09:43.528Z,50.72
2022-12-17T04:11:05.248Z,45.47
2022-12-17T04:12:27.089Z,43.03
2022-12-17T04:13:48.959Z,52.72
2022-12-17T04:15:10.784Z,48.42
2022-12-17T04:16:32.377Z,41.60
2022-12-17T04:17:53.980Z,49.13
2022-12-17T04:19:15.584Z,52.13
2022-12-17T04:20:37.186Z,37.45
2022-12-17T04:21:59.024Z,55.55
2022-12-17T04:23:20.868Z,53.33
2022-12-17T04:24:42.830Z,44.60
2022-12-17T04:26:04.317Z,49.75
2022-12-17T04:27:25.915Z,44.75
2022-12-17T04:28:47.519Z,47.17
2022-12-17T04:30:13.560Z,43.42
2022-12-17T04:31:35.235Z,52.35
2022-12-17T04:32:56.645Z,40.78
2022-12-17T04:34:17.885Z,38.53
2022-12-17T04:35:38.893Z,56.00
2022-12-17T04:38:20.652Z,58.50
2022-12-17T04:39:42.016Z,46.83
2022-12-17T04:41:03.311Z,49.22
2022-12-17T04:42:24.621Z,45.80
2022-12-17T04:43:45.913Z,63.67
2022-12-17T04:45:07.151Z,53.10
2022-12-17T04:46:28.373Z,48.83
2022-12-17T04:47:49.707Z,49.50
2022-12-17T04:49:11.070Z,54.67
2022-12-17T04:50:32.191Z,56.38
2022-12-17T04:51:53.359Z,61.55
2022-12-17T04:53:23.078Z,54.08
2022-12-17T04:54:43.875Z,54.90
2022-12-17T04:56:05.081Z,52.10
2022-12-17T04:57:26.000Z,50.78
2022-12-17T05:00:07.764Z,52.75
2022-12-17T05:01:29.023Z,54.92
2022-12-17T05:02:50.375Z,53.88
2022-12-17T05:04:11.696Z,49.60
2022-12-17T05:05:32.842Z,68.28
2022-12-17T05:06:54.206Z,45.85
2022-12-17T05:08:15.808Z,50.72
2022-12-17T05:09:37.165Z,61.78
2022-12-17T05:10:58.408Z,55.58
2022-12-17T05:12:19.627Z,56.13
2022-12-17T05:13:40.890Z,67.50
2022-12-17T05:15:01.890Z,53.70
2022-12-17T05:16:22.933Z,66.28
2022-12-17T05:17:43.771Z,56.40
2022-12-17T05:20:26.013Z,48.80
2022-12-17T05:21:47.256Z,46.72
2022-12-17T05:23:08.157Z,57.55
2022-12-17T05:25:50.136Z,44.20
2022-12-17T05:27:11.375Z,55.58
2022-12-17T05:28:32.499Z,56.50
2022-12-17T05:29:53.616Z,49.40
2022-12-17T05:31:14.947Z,65.57
2022-12-17T05:32:36.235Z,79.78
2022-12-17T05:33:57.344Z,68.95
2022-12-17T05:35:18.468Z,63.40
2022-12-17T05:36:39.596Z,50.60
2022-12-17T05:38:00.710Z,55.80
2022-12-17T05:39:21.960Z,58.40
2022-12-17T05:40:43.195Z,65.22
2022-12-17T05:42:04.437Z,51.78
2022-12-17T05:43:29.757Z,62.20
2022-12-17T05:44:51.241Z,63.22
2022-12-17T05:46:12.390Z,67.55
2022-12-17T05:47:33.608Z,54.08
2022-12-17T05:48:55.687Z,56.08
2022-12-17T05:50:17.417Z,69.70
2022-12-17T05:51:39.733Z,53.88
2022-12-17T05:53:00.735Z,62.72
2022-12-17T05:54:22.217Z,64.68
2022-12-17T05:55:43.817Z,64.97
2022-12-17T05:57:05.429Z,67.53
2022-12-17T05:58:30.028Z,57.47
2022-12-17T05:59:51.625Z,58.45
2022-12-17T06:01:20.721Z,63.05
2022-12-17T06:02:42.695Z,52.30
2022-12-17T06:04:04.317Z,62.38
2022-12-17T06:05:25.955Z,60.85
2022-12-17T06:06:47.918Z,63.53
2022-12-17T06:08:09.521Z,59.70
2022-12-17T06:09:31.004Z,65.20
2022-12-17T06:10:52.726Z,60.83
2022-12-17T06:12:14.331Z,61.63
2022-12-17T06:13:37.816Z,47.97
2022-12-17T06:14:59.330Z,63.38
2022-12-17T06:16:21.094Z,52.72
2022-12-17T06:17:42.775Z,62.28
2022-12-17T06:19:04.511Z,57.10
2022-12-17T06:20:26.464Z,62.72
2022-12-17T06:21:48.300Z,54.67
2022-12-17T06:23:24.184Z,73.57
2022-12-17T06:24:46.403Z,64.43
2022-12-17T06:26:08.114Z,71.05
2022-12-17T06:27:29.949Z,64.55
2022-12-17T06:28:51.431Z,62.00
2022-12-17T06:30:18.480Z,68.25
2022-12-17T06:31:40.777Z,61.05
2022-12-17T06:33:02.600Z,61.50
2022-12-17T06:34:24.201Z,62.35
2022-12-17T06:35:45.924Z,51.08
2022-12-17T06:37:07.287Z,60.25
2022-12-17T06:38:28.528Z,58.58
2022-12-17T06:39:50.010Z,60.38
2022-12-17T06:41:11.972Z,60.55
2022-12-17T06:42:33.214Z,58.15
2022-12-17T06:43:54.628Z,60.65
2022-12-17T06:45:15.940Z,63.67
2022-12-17T06:46:37.152Z,61.28
2022-12-17T06:47:58.423Z,70.55
2022-12-17T06:49:19.473Z,77.15
2022-12-17T06:52:01.551Z,59.80
2022-12-17T06:53:24.515Z,56.53
2022-12-17T06:54:45.634Z,68.28
2022-12-17T06:56:06.874Z,69.07
2022-12-17T06:57:28.237Z,63.38
2022-12-17T06:58:49.476Z,55.17
2022-12-17T07:00:10.478Z,54.35
2022-12-17T07:01:31.620Z,66.35
2022-12-17T07:02:52.561Z,78.25
2022-12-17T07:05:34.812Z,53.13
2022-12-17T07:06:56.083Z,41.85
2022-12-17T07:08:18.256Z,54.40
2022-12-17T07:09:39.643Z,64.68
2022-12-17T07:11:00.886Z,77.60
2022-12-17T07:12:22.257Z,65.10
2022-12-17T07:13:43.365Z,77.25
2022-12-17T07:15:04.130Z,57.70
2022-12-17T07:17:46.255Z,67.95
2022-12-17T07:19:07.489Z,61.28
2022-12-17T07:20:28.855Z,56.25
2022-12-17T07:21:49.969Z,55.50
2022-12-17T07:23:16.853Z,60.58
2022-12-17T07:24:38.214Z,59.47
2022-12-17T07:25:59.817Z,60.67
2022-12-17T07:27:21.053Z,55.45
2022-12-17T07:28:42.418Z,65.78
2022-12-17T07:30:03.656Z,58.85
2022-12-17T07:31:24.970Z,58.05
2022-12-17T07:32:46.138Z,65.45
2022-12-17T07:34:07.259Z,61.83
2022-12-17T07:35:28.751Z,63.92
2022-12-17T07:36:49.863Z,55.05
2022-12-17T07:38:21.785Z,51.08
2022-12-17T07:39:42.907Z,64.03
2022-12-17T07:41:04.041Z,59.47
2022-12-17T07:42:25.035Z,69.93
2022-12-17T07:43:51.287Z,54.40
2022-12-17T07:45:14.358Z,58.65
2022-12-17T07:46:35.599Z,63.90
2022-12-17T07:47:56.737Z,60.00
2022-12-17T07:49:21.366Z,48.63
2022-12-17T07:50:46.286Z,69.22
2022-12-17T07:52:07.409Z,61.92
2022-12-17T07:53:28.790Z,69.18
2022-12-17T07:54:50.132Z,70.00
2022-12-17T07:56:11.022Z,61.47
2022-12-17T07:57:32.144Z,55.60
2022-12-17T07:58:53.500Z,61.30
2022-12-17T08:00:22.910Z,62.90
2022-12-17T08:01:44.461Z,78.38
2022-12-17T08:03:06.337Z,71.57
2022-12-17T08:04:27.947Z,64.75
2022-12-17T08:05:49.430Z,67.55
2022-12-17T08:07:14.040Z,53.60
2022-12-17T08:08:35.756Z,65.07
2022-12-17T08:09:57.480Z,45.95
2022-12-17T08:11:18.962Z,61.30
2022-12-17T08:12:40.564Z,66.10
2022-12-17T08:14:02.285Z,57.65
2022-12-17T08:15:24.488Z,73.70
2022-12-17T08:16:46.109Z,59.25
2022-12-17T08:18:07.812Z,63.80
2022-12-17T08:19:29.533Z,62.17
2022-12-17T08:20:51.375Z,64.07
2022-12-17T08:22:12.979Z,54.95
2022-12-17T08:23:35.016Z,57.45
2022-12-17T08:25:00.385Z,59.63
2022-12-17T08:26:22.347Z,61.17
2022-12-17T08:27:43.947Z,61.90
2022-12-17T08:29:05.909Z,55.47
2022-12-17T08:30:28.021Z,54.90
2022-12-17T08:31:49.713Z,56.60
2022-12-17T08:33:11.316Z,55.13
2022-12-17T08:34:33.038Z,54.08
2022-12-17T08:35:54.520Z,53.55
2022-12-17T08:37:16.128Z,66.10
2022-12-17T08:38:37.484Z,52.97
2022-12-17T08:39:58.605Z,57.67
2022-12-17T08:41:20.448Z,58.03
2022-12-17T08:42:41.745Z,60.67
2022-12-17T08:44:03.173Z,59.30
2022-12-17T08:45:24.944Z,54.13
2022-12-17T08:46:46.068Z,69.43
2022-12-17T08:48:07.431Z,68.72
2022-12-17T08:49:28.861Z,57.95
2022-12-17T08:50:50.108Z,60.20
2022-12-17T08:52:11.389Z,64.35
2022-12-17T08:53:35.007Z,67.50
2022-12-17T08:54:56.629Z,50.10
2022-12-17T08:56:17.995Z,57.78
2022-12-17T08:57:39.356Z,66.35
2022-12-17T08:59:00.675Z,61.22
2022-12-17T09:00:22.682Z,63.30
2022-12-17T09:01:43.893Z,58.08
2022-12-17T09:03:04.999Z,65.30
2022-12-17T09:04:26.398Z,58.42
2022-12-17T09:05:47.608Z,53.35
2022-12-17T09:07:09.004Z,65.70
2022-12-17T09:08:30.239Z,62.08
2022-12-17T09:09:51.454Z,58.25
2022-12-17T09:11:12.337Z,54.60
2022-12-17T09:13:54.734Z,55.50
2022-12-17T09:15:15.964Z,50.83
2022-12-17T09:16:37.389Z,57.53
2022-12-17T09:17:58.574Z,43.50
2022-12-17T09:19:20.807Z,48.72
2022-12-17T09:20:42.369Z,50.22
2022-12-17T09:22:03.740Z,50.60
2022-12-17T09:23:24.970Z,55.95
2022-12-17T09:24:46.092Z,44.40
2022-12-17T09:26:15.012Z,49.88
2022-12-17T09:27:36.133Z,54.83
2022-12-17T09:28:57.374Z,54.50
2022-12-17T09:30:18.864Z,52.05
2022-12-17T09:31:40.101Z,53.10
2022-12-17T09:33:01.338Z,51.70
2022-12-17T09:34:22.463Z,46.70
2022-12-17T09:35:43.700Z,62.33
2022-12-17T09:37:05.539Z,59.78
2022-12-17T09:38:30.863Z,53.70
2022-12-17T09:39:52.004Z,53.55
2022-12-17T09:41:13.468Z,62.20
2022-12-17T09:43:30.028Z,55.05
2022-12-17T09:45:07.832Z,58.17
2022-12-17T09:46:41.115Z,52.83
2022-12-17T09:48:32.763Z,53.28
2022-12-17T09:49:53.921Z,44.58
2022-12-17T09:51:14.924Z,49.38
2022-12-17T09:52:45.892Z,51.38
2022-12-17T09:56:09.892Z,45.95
2022-12-17T09:57:35.829Z,43.75
2022-12-17T09:58:59.099Z,51.53
2022-12-17T10:00:29.579Z,63.50
2022-12-17T10:01:55.045Z,56.72
2022-12-17T10:03:16.830Z,60.13
2022-12-17T10:04:41.123Z,51.15
2022-12-17T10:06:05.827Z,57.15
2022-12-17T10:07:58.149Z,56.35
2022-12-17T10:09:22.035Z,53.80
2022-12-17T10:10:51.320Z,57.10
2022-12-17T10:12:13.515Z,55.97
2022-12-17T10:13:38.451Z,52.90
2022-12-17T10:15:00.215Z,58.95
2022-12-17T10:16:22.347Z,53.50
2022-12-17T10:17:44.126Z,55.20
2022-12-17T10:19:06.807Z,55.58
2022-12-17T10:20:40.529Z,39.55
2022-12-17T10:22:02.252Z,40.40
2022-12-17T10:23:23.855Z,61.83
2022-12-17T10:24:45.456Z,63.72
2022-12-17T10:26:12.700Z,56.67
2022-12-17T10:27:38.983Z,50.55
2022-12-17T10:29:00.702Z,53.15
2022-12-17T10:30:22.308Z,61.55
2022-12-17T10:31:49.191Z,51.30
2022-12-17T10:33:16.432Z,51.33
2022-12-17T10:34:40.553Z,49.15
2022-12-17T10:36:02.035Z,43.28
2022-12-17T10:37:25.322Z,51.97
2022-12-17T10:38:49.320Z,47.08
2022-12-17T10:40:19.329Z,54.88
2022-12-17T10:41:44.407Z,47.60
2022-12-17T10:43:05.889Z,45.78
2022-12-17T10:44:49.930Z,48.17
2022-12-17T10:46:15.334Z,52.03
2022-12-17T10:47:44.534Z,51.10
2022-12-17T10:49:11.008Z,52.08
2022-12-17T10:50:41.946Z,43.55
2022-12-17T10:52:03.141Z,45.00
2022-12-17T10:53:37.499Z,55.17
2022-12-17T10:54:59.066Z,47.35
2022-12-17T10:56:20.352Z,47.40
2022-12-17T10:57:54.678Z,48.33
2022-12-17T10:59:15.550Z,43.80
2022-12-17T11:01:59.375Z,39.33
2022-12-17T11:03:21.040Z,45.97
2022-12-17T11:04:48.211Z,50.45
2022-12-17T11:06:13.379Z,50.85
2022-12-17T11:07:48.168Z,44.13
2022-12-17T11:09:09.636Z,49.30
2022-12-17T11:10:37.758Z,44.70
2022-12-17T11:12:04.168Z,50.22
2022-12-17T11:13:37.275Z,53.03
2022-12-17T11:15:06.804Z,49.53
2022-12-17T11:16:51.900Z,44.90
2022-12-17T11:18:12.953Z,46.75
2022-12-17T11:20:09.332Z,54.13
2022-12-17T11:21:45.327Z,38.25
2022-12-17T11:23:17.255Z,44.38
2022-12-17T11:24:53.608Z,46.25
2022-12-17T11:26:33.688Z,48.42
2022-12-17T11:28:01.531Z,52.63
2022-12-17T11:29:23.010Z,53.30
2022-12-17T11:30:46.380Z,49.15
2022-12-17T11:32:19.534Z,52.72
2022-12-17T11:33:48.815Z,50.53
2022-12-17T11:35:22.175Z,54.08
2022-12-17T11:37:09.341Z,50.28
2022-12-17T11:38:43.897Z,42.30
2022-12-17T11:40:20.747Z,54.83
2022-12-17T11:42:00.345Z,44.70
2022-12-17T11:43:36.474Z,50.63
2022-12-17T11:45:21.001Z,43.97
2022-12-17T11:46:51.027Z,55.05
2022-12-17T11:48:17.755Z,46.28
2022-12-17T11:50:33.839Z,50.10
2022-12-17T11:51:59.888Z,45.58
2022-12-17T11:53:29.189Z,54.95
2022-12-17T11:55:16.567Z,57.33
2022-12-17T11:56:40.567Z,49.00
2022-12-17T11:58:01.807Z,44.85
2022-12-17T11:59:35.051Z,53.88
2022-12-17T12:01:09.974Z,55.83
2022-12-17T12:02:48.192Z,52.33
2022-12-17T12:04:27.501Z,52.60
2022-12-17T12:06:04.473Z,43.22
2022-12-17T12:07:54.985Z,58.28
2022-12-17T12:09:32.189Z,42.85
2022-12-17T12:11:11.432Z,45.28
2022-12-17T12:13:07.953Z,46.30
2022-12-17T12:15:18.396Z,53.75
2022-12-17T12:17:13.840Z,42.17
2022-12-17T12:18:43.602Z,48.13
2022-12-17T12:20:13.366Z,53.92
2022-12-17T12:22:07.851Z,46.05
2022-12-17T12:23:43.612Z,49.20
2022-12-17T12:25:34.976Z,52.85
2022-12-17T12:28:51.902Z,40.40
2022-12-17T12:30:37.022Z,52.97
2022-12-17T12:32:13.386Z,56.72
2022-12-17T12:33:34.626Z,66.82
2022-12-17T12:34:58.032Z,59.72
2022-12-17T12:36:22.750Z,63.65
2022-12-17T12:37:44.593Z,68.47
2022-12-17T12:39:13.156Z,52.80
2022-12-17T12:40:34.398Z,61.13
2022-12-17T12:42:15.321Z,66.32
2022-12-17T12:43:50.125Z,61.05
2022-12-17T12:45:23.317Z,62.38
2022-12-17T12:47:03.331Z,52.05
2022-12-17T12:48:29.490Z,73.07
2022-12-17T12:50:06.743Z,69.32
2022-12-17T12:51:42.865Z,85.75
2022-12-17T12:53:04.469Z,70.65
2022-12-17T12:54:48.109Z,70.47
2022-12-17T12:56:09.462Z,67.75
2022-12-17T12:57:52.108Z,64.03
2022-12-17T12:59:13.468Z,53.70
2022-12-17T13:00:43.668Z,73.57
2022-12-17T13:02:05.310Z,63.65
2022-12-17T13:03:39.622Z,71.63
2022-12-17T13:05:01.796Z,70.15
2022-12-17T13:06:04.719Z,62.13
2022-12-17T13:07:21.482Z,83.32
2022-12-17T13:08:24.639Z,72.03
2022-12-17T13:09:32.329Z,70.93
2022-12-17T13:10:37.840Z,89.78
2022-12-17T13:11:44.444Z,73.07
2022-12-17T13:12:48.131Z,66.82
2022-12-17T13:13:57.133Z,65.68
2022-12-17T13:15:10.241Z,69.68
2022-12-17T13:16:42.764Z,88.93
2022-12-17T13:17:57.881Z,75.85
2022-12-17T13:19:17.541Z,64.82
2022-12-17T13:20:32.206Z,68.97
2022-12-17T13:21:36.166Z,79.85
2022-12-17T13:22:52.724Z,79.15
2022-12-17T13:23:55.492Z,77.20
2022-12-17T13:25:19.247Z,69.90
2022-12-17T13:26:44.687Z,81.10
2022-12-17T13:27:48.056Z,71.15
2022-12-17T13:28:56.634Z,88.30
2022-12-17T13:30:17.573Z,86.07
2022-12-17T13:32:33.772Z,66.28
2022-12-17T13:33:51.176Z,65.60
2022-12-17T13:35:25.497Z,81.38
2022-12-17T13:36:46.621Z,66.60
2022-12-17T13:38:09.899Z,77.70
2022-12-17T13:39:24.558Z,73.20
2022-12-17T13:41:17.698Z,77.75
2022-12-17T13:42:33.064Z,79.15
2022-12-17T13:43:41.224Z,72.43
2022-12-17T13:44:47.707Z,71.28
2022-12-17T13:45:57.579Z,72.20
2022-12-17T13:47:08.195Z,62.42
2022-12-17T13:48:29.024Z,84.95
2022-12-17T13:49:35.007Z,80.82
2022-12-17T13:50:39.053Z,81.53
2022-12-17T13:51:42.435Z,67.97
2022-12-17T13:52:46.473Z,72.80
2022-12-17T13:53:58.648Z,71.72
2022-12-17T13:55:10.898Z,71.82
2022-12-17T13:56:14.361Z,72.70
2022-12-17T13:57:23.366Z,68.18
2022-12-17T13:58:35.382Z,79.50
2022-12-17T13:59:38.367Z,77.25
2022-12-17T14:00:41.133Z,74.63
2022-12-17T14:01:46.926Z,58.22
2022-12-17T14:02:50.359Z,79.28
2022-12-17T14:04:06.184Z,76.38
2022-12-17T14:05:24.941Z,81.53
2022-12-17T14:06:37.065Z,75.65
2022-12-17T14:07:41.145Z,66.63
2022-12-17T14:08:44.633Z,80.78
2022-12-17T14:09:49.184Z,62.13
2022-12-17T14:11:14.867Z,69.70
2022-12-17T14:12:22.597Z,67.30
2022-12-17T14:13:25.790Z,64.95
2022-12-17T14:14:57.475Z,84.50
2022-12-17T14:16:00.594Z,70.18
2022-12-17T14:17:04.379Z,73.15
2022-12-17T14:18:16.557Z,64.05
2022-12-17T14:19:19.683Z,75.05
2022-12-17T14:20:25.801Z,67.25
2022-12-17T14:21:30.003Z,70.25
2022-12-17T14:22:39.005Z,76.85
2022-12-17T14:23:42.844Z,73.68
2022-12-17T14:24:46.687Z,74.72
2022-12-17T14:25:49.809Z,87.78
2022-12-17T14:26:55.691Z,77.45
2022-12-17T14:28:05.895Z,69.35
2022-12-17T14:29:13.940Z,88.32
2022-12-17T14:31:17.156Z,80.68
2022-12-17T14:32:30.772Z,73.28
2022-12-17T14:33:36.747Z,67.97
2022-12-17T14:34:43.464Z,73.72
2022-12-17T14:35:53.064Z,79.50
2022-12-17T14:37:00.151Z,80.22
2022-12-17T14:38:04.470Z,71.47
2022-12-17T14:39:19.955Z,78.38
2022-12-17T14:40:24.993Z,86.68
2022-12-17T14:41:48.399Z,85.07
2022-12-17T14:42:52.718Z,88.78
2022-12-17T14:43:57.880Z,73.45
2022-12-17T14:45:07.967Z,75.22
2022-12-17T14:46:21.478Z,70.40
2022-12-17T14:47:32.926Z,86.47
2022-12-17T14:48:54.003Z,70.82
2022-12-17T14:50:24.290Z,81.22
2022-12-17T14:51:42.823Z,73.72
2022-12-17T14:52:50.693Z,81.93
2022-12-17T14:53:53.335Z,79.82
2022-12-17T14:54:55.905Z,92.40
2022-12-17T14:55:59.219Z,68.05
2022-12-17T14:57:05.866Z,67.70
2022-12-17T14:58:14.961Z,65.43
2022-12-17T14:59:38.360Z,83.53
2022-12-17T15:01:09.177Z,70.72
2022-12-17T15:02:17.697Z,86.45
2022-12-17T15:03:30.005Z,83.20
2022-12-17T15:04:33.231Z,72.78
2022-12-17T15:05:36.236Z,82.57
2022-12-17T15:06:38.755Z,90.38
2022-12-17T15:07:41.846Z,76.07
2022-12-17T15:08:49.554Z,72.53
2022-12-17T15:09:53.123Z,98.75
2022-12-17T15:10:55.765Z,82.03
2022-12-17T15:11:58.408Z,74.05
2022-12-17T15:13:01.199Z,87.25
2022-12-17T15:14:04.409Z,82.55
2022-12-17T15:15:07.573Z,75.50
2022-12-17T15:16:11.132Z,85.88
2022-12-17T15:17:14.280Z,76.55
2022-12-17T15:18:16.806Z,72.30
2022-12-17T15:19:19.442Z,71.32
2022-12-17T15:20:22.178Z,71.75
2022-12-17T15:21:25.931Z,72.18
2022-12-17T15:22:28.688Z,95.75
2022-12-17T15:23:32.042Z,72.57
2022-12-17T15:24:34.565Z,70.72
2022-12-17T15:25:43.663Z,83.10
2022-12-17T15:26:49.109Z,73.53
2022-12-17T15:27:51.850Z,79.55
2022-12-17T15:28:54.491Z,76.75
2022-12-17T15:29:57.015Z,68.07
2022-12-17T15:30:59.693Z,84.80
2022-12-17T15:32:02.888Z,77.68
2022-12-17T15:33:06.738Z,70.97
2022-12-17T15:34:11.303Z,76.43
2022-12-17T15:35:15.250Z,72.32
2022-12-17T15:36:17.895Z,74.55
2022-12-17T15:37:25.430Z,72.55
2022-12-17T15:38:28.214Z,80.72
2022-12-17T15:39:30.857Z,81.70
2022-12-17T15:40:34.095Z,80.40
2022-12-17T15:41:55.338Z,79.15
2022-12-17T15:43:13.560Z,68.55
2022-12-17T15:44:16.220Z,83.70
2022-12-17T15:45:18.740Z,86.20
2022-12-17T15:46:21.315Z,70.88
2022-12-17T15:47:23.904Z,78.22
2022-12-17T15:48:26.545Z,68.25
2022-12-17T15:49:29.306Z,70.30
2022-12-17T15:50:31.968Z,72.75
2022-12-17T15:51:34.478Z,78.03
2022-12-17T15:52:38.792Z,77.38
2022-12-17T15:53:41.447Z,70.05
2022-12-17T15:54:44.320Z,71.65
2022-12-17T15:55:46.957Z,73.78
2022-12-17T15:56:54.160Z,73.10
2022-12-17T15:57:56.920Z,73.38
2022-12-17T15:58:59.686Z,80.82
2022-12-17T16:00:02.330Z,71.15
2022-12-17T16:01:07.917Z,78.97
2022-12-17T16:02:11.711Z,88.20
2022-12-17T16:03:14.785Z,84.07
2022-12-17T16:04:24.464Z,79.28
2022-12-17T16:05:28.375Z,68.40
2022-12-17T16:06:31.259Z,73.75
2022-12-17T16:07:34.616Z,76.50
2022-12-17T16:08:40.518Z,81.80
2022-12-17T16:09:43.741Z,68.53
2022-12-17T16:10:46.862Z,75.88
2022-12-17T16:11:49.983Z,79.28
2022-12-17T16:12:53.106Z,71.47
2022-12-17T16:13:56.946Z,78.05
2022-12-17T16:15:00.087Z,66.53
2022-12-17T16:16:04.400Z,76.30
2022-12-17T16:17:07.633Z,69.25
2022-12-17T16:18:10.753Z,67.63
2022-12-17T16:19:13.996Z,69.57
2022-12-17T16:20:17.118Z,71.05
2022-12-17T16:21:20.242Z,63.90
2022-12-17T16:22:23.481Z,67.40
2022-12-17T16:23:26.723Z,69.78
2022-12-17T16:24:29.846Z,77.63
2022-12-17T16:25:33.086Z,73.63
2022-12-17T16:26:36.206Z,79.13
2022-12-17T16:27:39.448Z,63.30
2022-12-17T16:28:42.573Z,64.18
2022-12-17T16:29:48.092Z,59.00
2022-12-17T16:31:17.554Z,71.57
2022-12-17T16:32:20.742Z,68.82
2022-12-17T16:33:23.978Z,80.07
2022-12-17T16:34:27.581Z,66.53
2022-12-17T16:35:30.945Z,65.90
2022-12-17T16:36:34.308Z,73.15
2022-12-17T16:37:37.786Z,70.45
2022-12-17T16:38:48.713Z,72.97
2022-12-17T16:39:58.116Z,62.55
2022-12-17T16:41:04.072Z,70.38
2022-12-17T16:42:07.314Z,75.57
2022-12-17T16:43:10.794Z,69.90
2022-12-17T16:44:13.796Z,69.07
2022-12-17T16:45:16.801Z,73.93
2022-12-17T16:46:32.740Z,65.40
2022-12-17T16:47:35.521Z,77.80
2022-12-17T16:48:39.847Z,84.28
2022-12-17T16:49:42.844Z,77.85
2022-12-17T16:50:46.567Z,71.78
2022-12-17T16:51:52.209Z,73.32
2022-12-17T16:52:54.781Z,72.15
2022-12-17T16:53:58.270Z,75.95
2022-12-17T16:55:00.854Z,72.25
2022-12-17T16:56:03.613Z,67.07
2022-12-17T16:57:06.258Z,70.13
2022-12-17T16:58:09.381Z,72.78
2022-12-17T16:59:13.580Z,65.95
2022-12-17T17:00:16.388Z,81.93
2022-12-17T17:01:24.871Z,71.57
2022-12-17T17:02:27.613Z,67.47
2022-12-17T17:03:30.457Z,67.47
2022-12-17T17:04:32.949Z,75.88
2022-12-17T17:05:38.591Z,73.20
2022-12-17T17:06:45.668Z,63.33
2022-12-17T17:07:48.275Z,72.63
2022-12-17T17:08:51.073Z,73.30
2022-12-17T17:09:53.678Z,80.70
2022-12-17T17:10:56.204Z,78.57
2022-12-17T17:11:59.209Z,68.43
2022-12-17T17:13:01.854Z,70.07
2022-12-17T17:14:05.446Z,71.57
2022-12-17T17:15:08.566Z,75.20
2022-12-17T17:16:11.758Z,71.70
2022-12-17T17:17:15.097Z,90.32
2022-12-17T17:18:20.181Z,63.53
2022-12-17T17:19:25.997Z,79.03
2022-12-17T17:20:32.382Z,80.25
2022-12-17T17:21:38.721Z,74.63
2022-12-17T17:22:41.481Z,82.90
2022-12-17T17:23:44.001Z,82.25
2022-12-17T17:24:46.643Z,80.10
2022-12-17T17:25:58.198Z,76.57
2022-12-17T17:27:01.283Z,75.65
2022-12-17T17:28:03.925Z,68.32
2022-12-17T17:29:06.563Z,69.03